Share

House, NM (88121)

Melrose Gunnery Range (K4MR) Elev 4350 ft | 34.30 °N, 103.80 °W | Change Station
Active Advisory: Wind Advisory

Current weather conditions updated 48 minutes ago

Partly Cloudy
Partly Cloudy
57 °F
Feels Like 57 °F
N
28
Wind Variable Wind from North
Gusts 38 mph
Sunrise 6:22 AM
Sunset 7:28 PM
Moon Waning Gibbous

Tomorrow is forecast to be Much Cooler than today.

Pressure 29.75 in
Visibility 7.0 miles
Clouds Few 14000 ft
Dew Point 25 °F
Humidity 30%
Rainfall 0.00 in
Snow Depth Not available.
UV 0 out of 16
Pollen 9.40 out of 12
Air Quality Not available.
Flu Activity Local Activity
METAR K4MR 170356Z AUTO 01024G33KT 7SM FEW140 14/M04 A2987 RMK AO2 PK WND 01035/41 SLP073 T01381037

More Conditions Fewer Conditions

Pressure 29.75 in
Visibility 7.0 miles
Clouds Few 14000 ft
Dew Point 25 °F
Humidity 30%
Rainfall 0.00 in
Snow Depth Not available.
UV 0 out of 16
Pollen 9.40 out of 12
Air Quality Not available.
Flu Activity Local Activity
METAR K4MR 170356Z AUTO 01024G33KT 7SM FEW140 14/M04 A2987 RMK AO2 PK WND 01035/41 SLP073 T01381037

More Conditions Fewer Conditions

10-Day Forecast

Almanac

Astronomy

Apr. 16, 2014 Rise Set
Actual Time 6:22 AM MDT 7:28 PM MDT
Civil Twilight 5:56 AM MDT 7:55 PM MDT
Nautical Twilight 5:26 AM MDT 8:26 PM MDT
Astronomical Twilight 4:54 AM MDT 8:58 PM MDT
Moon 9:11 PM MDT (4/16) 7:14 AM MDT (4/16)
Length of Visible Light 13h 58m
Length of Day
13h 06m
Tomorrow will be 2m 3s longer.
Waning Gibbous, 96% of the Moon is Illuminated
Apr 17
Waning Gibbous
Apr 22
Last Quarter
Apr 29
New
May 6
First Quarter
May 14
Full

Yesterday's Extremes

State Highs State Lows

Community

  • symphony in blue....
    symphony in blue....
  • Dawn Surprise
    Dawn Surprise
  • Yucca delight
    Yucca delight
  • Sunset inside of the Ocean
    Sunset inside of the Ocean
  • Lunar eclipse 15 April 2014
    Lunar eclipse 15 April 2014

WunderPhotos

Upload Photos

1,701,856 photos uploaded!

WunderBlogs® & News

Nearby

Snow Depth

Station Depth Elevation
Wesner Springs 0 in 11120 ft
Elk Cabin 0 in 8210 ft
Santa Fe 31 in 11445 ft
Gallegos Peak 1 in 9800 ft
Red River Pass #2 0 in 9850 ft

Coastal Water Temperatures

Place Temperature
No Stations Reporting

Earthquake Activity

City Distance Mag. Time & Date
No recent earthquake activity has been reported nearby.
Minimum magnitude displayed is 2.5.

Nearby Weather Stations

There are no personal weather stations in this area.

What do you think?

We're not finished. Please let us know what you like, what you don't like, and what you are still missing.